Time;durP1;ratioP1;P1;durP2;ratioP2;P2;SDS_P1;SDS_P2;PMS_P1;PMS_P2;Temp;Humidity;BMP_temperature;BMP_pressure;BME280_temperature;BME280_humidity;BME280_pressure;Samples;Min_cycle;Max_cycle;Signal;HPM_P1;HPM_P2
2020/12/12 00:01:37;;;;;;;18.87;14.07;;;;;;;2.52;100.00;99420.89;3475079;85;25823;-76
2020/12/12 00:06:39;;;;;;;18.27;13.47;;;;;;;2.53;100.00;99416.89;3475043;85;33327;-78
2020/12/12 00:11:39;;;;;;;19.07;14.13;;;;;;;2.59;100.00;99422.91;3475271;85;25744;-76
2020/12/12 00:16:40;;;;;;;16.70;12.63;;;;;;;2.61;100.00;99416.70;3475061;85;33175;-77
2020/12/12 00:21:41;;;;;;;20.20;15.37;;;;;;;2.70;100.00;99416.97;3475552;85;33663;-75
2020/12/12 00:26:42;;;;;;;20.70;14.50;;;;;;;2.71;100.00;99416.92;3475242;85;25812;-76
2020/12/12 00:31:43;;;;;;;16.57;13.33;;;;;;;2.73;100.00;99417.34;3475574;85;25720;-76
2020/12/12 00:36:45;;;;;;;16.03;12.23;;;;;;;2.82;100.00;99410.55;3476325;84;25764;-76
2020/12/12 00:41:46;;;;;;;16.73;12.87;;;;;;;2.82;100.00;99407.92;3476820;85;25890;-77
2020/12/12 00:46:47;;;;;;;16.63;12.57;;;;;;;2.82;100.00;99398.70;3475189;84;26203;-75
2020/12/12 00:51:48;;;;;;;16.27;11.35;;;;;;;2.80;100.00;99397.41;3475217;85;26265;-76
2020/12/12 00:56:49;;;;;;;14.27;11.00;;;;;;;2.87;100.00;99399.45;3508664;84;25779;-76
2020/12/12 01:01:50;;;;;;;14.63;11.13;;;;;;;2.92;100.00;99396.25;3509525;84;25781;-76
2020/12/12 01:06:51;;;;;;;17.77;12.27;;;;;;;2.92;100.00;99401.52;3509553;84;25840;-76
2020/12/12 01:11:56;;;;;;;16.87;11.97;;;;;;;2.83;100.00;99395.14;3509447;84;25726;-76
2020/12/12 01:17:00;;;;;;;16.07;11.40;;;;;;;2.92;100.00;99394.08;3509402;84;34192;-75
2020/12/12 01:22:01;;;;;;;17.33;12.03;;;;;;;2.94;100.00;99392.25;3509607;84;33248;-76
2020/12/12 01:27:02;;;;;;;15.63;12.17;;;;;;;2.96;100.00;99395.26;3509332;84;25836;-76
2020/12/12 01:32:04;;;;;;;14.73;12.20;;;;;;;2.92;100.00;99388.81;3509188;84;44161;-70
2020/12/12 01:37:05;;;;;;;15.90;12.13;;;;;;;2.99;100.00;99379.39;3509372;84;25891;-71
2020/12/12 01:42:06;;;;;;;18.98;13.65;;;;;;;3.05;100.00;99377.50;3509188;84;25849;-70
2020/12/12 01:47:09;;;;;;;15.58;12.43;;;;;;;3.04;100.00;99372.70;3509144;84;26237;-70
2020/12/12 01:52:12;;;;;;;16.93;12.63;;;;;;;3.01;100.00;99376.72;3509254;84;33262;-77
2020/12/12 01:57:17;;;;;;;16.90;12.50;;;;;;;3.07;100.00;99364.70;3453223;85;33276;-70
2020/12/12 02:02:21;;;;;;;17.20;12.20;;;;;;;3.05;100.00;99373.12;3499956;84;25939;-70
2020/12/12 02:07:24;;;;;;;16.27;12.13;;;;;;;3.00;100.00;99386.39;3495197;84;33265;-71
2020/12/12 02:12:25;;;;;;;14.47;11.37;;;;;;;2.95;100.00;99392.23;3495267;84;33656;-75
2020/12/12 02:17:26;;;;;;;11.23;8.93;;;;;;;2.96;100.00;99387.83;3500757;83;25795;-76
2020/12/12 02:22:27;;;;;;;15.15;11.68;;;;;;;2.95;100.00;99392.23;3500592;84;25986;-77
2020/12/12 02:27:28;;;;;;;14.70;11.53;;;;;;;2.94;100.00;99383.92;3500732;84;25846;-77
2020/12/12 02:32:28;;;;;;;18.03;14.13;;;;;;;2.90;100.00;99388.83;3500554;84;25828;-75
2020/12/12 02:37:29;;;;;;;14.07;12.20;;;;;;;2.87;100.00;99396.36;3500438;84;28472;-76
2020/12/12 02:42:31;;;;;;;15.43;12.30;;;;;;;2.92;100.00;99401.98;3500366;84;25748;-77
2020/12/12 02:47:34;;;;;;;16.27;13.03;;;;;;;2.94;100.00;99403.67;3500496;84;31002;-77
2020/12/12 02:52:35;;;;;;;19.03;13.70;;;;;;;2.97;100.00;99399.63;3500612;84;25796;-78
2020/12/12 02:57:38;;;;;;;21.23;14.57;;;;;;;2.91;100.00;99395.83;3556514;83;26250;-77
2020/12/12 03:02:39;;;;;;;20.80;15.30;;;;;;;2.91;100.00;99399.78;3536034;83;33557;-76
2020/12/12 03:07:40;;;;;;;18.60;14.50;;;;;;;2.87;100.00;99396.36;3556576;83;26216;-75
2020/12/12 03:12:41;;;;;;;22.50;15.57;;;;;;;2.87;100.00;99395.50;3558769;83;26353;-76
2020/12/12 03:17:42;;;;;;;22.70;16.83;;;;;;;2.90;100.00;99411.67;3556930;83;25835;-70
2020/12/12 03:22:42;;;;;;;24.87;17.33;;;;;;;2.93;100.00;99406.31;3556583;82;25791;-70
2020/12/12 03:27:43;;;;;;;27.10;19.03;;;;;;;2.84;100.00;99396.88;3556813;83;25790;-76
2020/12/12 03:32:44;;;;;;;21.73;16.27;;;;;;;2.92;100.00;99411.20;3556850;83;26108;-76
2020/12/12 03:37:45;;;;;;;25.75;17.35;;;;;;;2.91;100.00;99401.09;3556820;83;25824;-76
2020/12/12 03:42:46;;;;;;;33.10;21.47;;;;;;;2.87;100.00;99406.03;3556812;83;31458;-76
2020/12/12 03:47:50;;;;;;;29.10;19.70;;;;;;;2.83;100.00;99420.16;3556804;83;31493;-69
2020/12/12 03:52:51;;;;;;;28.50;18.43;;;;;;;2.82;100.00;99414.50;3556612;83;25783;-70
2020/12/12 03:57:52;;;;;;;26.00;19.77;;;;;;;2.86;100.00;99413.52;3551894;83;25955;-77
2020/12/12 04:02:53;;;;;;;28.10;18.60;;;;;;;2.86;100.00;99421.41;3552057;83;26357;-77
2020/12/12 04:07:54;;;;;;;32.00;19.63;;;;;;;2.82;100.00;99419.77;3551889;83;26374;-77
2020/12/12 04:12:55;;;;;;;30.10;18.90;;;;;;;2.83;100.00;99417.52;3552341;83;31010;-76
2020/12/12 04:17:56;;;;;;;26.10;17.83;;;;;;;2.78;100.00;99422.04;3552268;83;31047;-77
2020/12/12 04:22:57;;;;;;;24.33;17.37;;;;;;;2.75;100.00;99426.08;3552291;83;31031;-76
2020/12/12 04:27:58;;;;;;;28.77;18.87;;;;;;;2.76;100.00;99420.77;3552021;83;30944;-77
2020/12/12 04:32:59;;;;;;;25.67;18.03;;;;;;;2.73;100.00;99413.39;3552431;83;30964;-75
2020/12/12 04:38:00;;;;;;;26.43;18.50;;;;;;;2.62;100.00;99429.43;3551850;83;25824;-77
2020/12/12 04:43:03;;;;;;;23.63;17.40;;;;;;;2.62;100.00;99430.75;3551965;83;25833;-77
2020/12/12 04:48:04;;;;;;;25.40;18.20;;;;;;;2.63;100.00;99433.34;3551951;83;31503;-77
2020/12/12 04:53:15;;;;;;;27.63;19.07;;;;;;;2.70;100.00;99432.29;3552329;83;25715;-76
2020/12/12 04:58:24;;;;;;;26.00;18.47;;;;;;;2.75;100.00;99433.97;3552221;83;31510;-75
2020/12/12 05:03:26;;;;;;;26.00;17.57;;;;;;;2.61;100.00;99437.76;3552007;83;30956;-76
2020/12/12 05:08:28;;;;;;;24.67;16.87;;;;;;;2.65;100.00;99436.80;3551816;83;31009;-77
2020/12/12 05:13:30;;;;;;;30.07;18.50;;;;;;;2.58;100.00;99432.58;3551722;83;25752;-70
2020/12/12 05:18:33;;;;;;;27.03;18.03;;;;;;;2.62;100.00;99437.33;3551711;83;31179;-69
2020/12/12 05:23:34;;;;;;;26.63;16.80;;;;;;;2.58;100.00;99439.16;3551635;83;31554;-69
2020/12/12 05:28:35;;;;;;;24.33;16.80;;;;;;;2.43;100.00;99443.44;3531162;83;31526;-70
2020/12/12 05:33:37;;;;;;;26.87;17.93;;;;;;;2.36;100.00;99439.63;3551559;83;25816;-70
2020/12/12 05:38:40;;;;;;;30.67;19.00;;;;;;;2.33;100.00;99449.35;3551970;83;25879;-76
2020/12/12 05:43:41;;;;;;;29.23;18.70;;;;;;;2.26;100.00;99449.06;3554150;83;30988;-77
2020/12/12 05:48:43;;;;;;;27.00;17.30;;;;;;;2.35;100.00;99445.78;3551766;83;31008;-76
2020/12/12 05:53:46;;;;;;;30.47;17.93;;;;;;;2.39;100.00;99438.27;3551693;83;25796;-76
2020/12/12 05:58:47;;;;;;;31.40;17.60;;;;;;;2.44;100.00;99432.02;3561564;83;31032;-76
2020/12/12 06:04:00;;;;;;;32.43;18.30;;;;;;;2.38;100.00;99430.38;3561461;82;25776;-76
2020/12/12 06:09:09;;;;;;;30.43;17.17;;;;;;;2.33;100.00;99450.20;3561441;83;31080;-76
2020/12/12 06:14:12;;;;;;;26.13;16.40;;;;;;;2.11;100.00;99446.32;3561408;83;30893;-77
2020/12/12 06:19:15;;;;;;;25.50;15.70;;;;;;;2.03;100.00;99449.97;3561434;83;31089;-77
2020/12/12 06:24:19;;;;;;;22.90;15.00;;;;;;;2.00;100.00;99453.96;3561343;83;30993;-76
2020/12/12 06:29:21;;;;;;;28.20;16.67;;;;;;;1.99;100.00;99450.06;3561578;83;30974;-75
2020/12/12 06:34:47;;;;;;;23.07;15.30;;;;;;;2.01;100.00;99450.44;3578742;81;30993;-83
2020/12/12 06:39:48;;;;;;;26.43;16.87;;;;;;;1.94;100.00;99447.52;3562643;83;31449;-82
2020/12/12 06:44:49;;;;;;;26.40;16.67;;;;;;;1.99;100.00;99453.53;3588170;80;25810;-80
2020/12/12 06:50:10;;;;;;;27.47;16.17;;;;;;;2.07;100.00;99452.94;3616938;80;26714;-81
2020/12/12 06:55:14;;;;;;;24.97;16.83;;;;;;;2.01;100.00;99458.78;3620878;80;31411;-77
2020/12/12 07:00:30;;;;;;;24.33;16.53;;;;;;;1.98;100.00;99461.00;3630545;80;30976;-80
2020/12/12 07:05:37;;;;;;;26.50;16.00;;;;;;;1.92;100.00;99469.02;3687263;80;30964;-74
2020/12/12 07:10:42;;;;;;;21.70;13.20;;;;;;;1.89;100.00;99460.74;3687178;80;30939;-74
2020/12/12 07:15:44;;;;;;;24.75;15.25;;;;;;;1.72;100.00;99470.27;3660554;80;25746;-74
2020/12/12 07:20:49;;;;;;;22.40;14.03;;;;;;;1.82;100.00;99472.73;3669236;80;32003;-81
2020/12/12 07:25:51;;;;;;;22.42;14.63;;;;;;;1.79;100.00;99465.77;3687636;80;25817;-81
2020/12/12 07:30:52;;;;;;;23.30;15.30;;;;;;;1.78;100.00;99473.66;3687424;80;30963;-80
2020/12/12 07:35:53;;;;;;;21.33;13.63;;;;;;;1.71;100.00;99471.61;3627702;80;25850;-80
2020/12/12 07:40:54;;;;;;;17.70;12.93;;;;;;;1.82;100.00;99478.84;3615677;80;25808;-81
2020/12/12 07:46:08;;;;;;;16.73;11.55;;;;;;;1.84;100.00;99484.94;3620489;80;25782;-81
2020/12/12 07:51:14;;;;;;;16.10;11.40;;;;;;;1.78;100.00;99490.31;3622377;80;30975;-81
2020/12/12 07:56:18;;;;;;;15.87;11.37;;;;;;;1.78;100.00;99490.75;3632123;80;30902;-80
2020/12/12 08:01:23;;;;;;;12.97;10.27;;;;;;;1.75;100.00;99495.19;3681880;80;30977;-81
2020/12/12 08:06:28;;;;;;;14.55;9.55;;;;;;;1.69;100.00;99500.52;3682558;80;25877;-79
2020/12/12 08:11:30;;;;;;;13.67;10.57;;;;;;;1.83;100.00;99497.66;3643512;80;26749;-80
2020/12/12 08:16:43;;;;;;;14.30;10.40;;;;;;;1.75;100.00;99510.06;3618276;80;30940;-80
2020/12/12 08:21:41;;;;;;;13.37;10.23;;;;;;;1.66;100.00;99506.28;3617842;80;31013;-76
2020/12/12 08:26:42;;;;;;;14.43;8.93;;;;;;;1.60;100.00;99508.59;3618190;80;26160;-76
2020/12/12 08:31:43;;;;;;;13.73;8.73;;;;;;;1.64;100.00;99506.31;3618087;80;25813;-71
2020/12/12 08:36:44;;;;;;;13.97;9.97;;;;;;;1.62;100.00;99507.23;3618027;80;25839;-70
2020/12/12 08:41:46;;;;;;;14.40;9.70;;;;;;;1.71;100.00;99498.74;3618038;80;25859;-70
2020/12/12 08:46:53;;;;;;;12.00;9.40;;;;;;;1.59;100.00;99496.34;3617976;80;26054;-70
2020/12/12 08:51:54;;;;;;;12.20;9.47;;;;;;;1.71;100.00;99498.74;3647508;80;31004;-75
2020/12/12 08:57:09;;;;;;;12.70;9.50;;;;;;;1.73;100.00;99514.47;3657809;80;25866;-75
2020/12/12 09:02:17;;;;;;;13.32;9.48;;;;;;;1.63;100.00;99509.83;3672539;80;26123;-73
2020/12/12 09:07:23;;;;;;;11.80;9.87;;;;;;;1.42;100.00;99501.43;3687295;80;30947;-74
2020/12/12 09:12:24;;;;;;;13.90;10.27;;;;;;;1.49;100.00;99501.32;3687461;80;31018;-74
2020/12/12 09:17:25;;;;;;;13.10;10.30;;;;;;;1.49;100.00;99503.95;3687630;80;30966;-75
2020/12/12 09:22:26;;;;;;;10.90;8.57;;;;;;;1.47;100.00;99499.19;3666995;80;25755;-76
2020/12/12 09:27:28;;;;;;;12.30;9.57;;;;;;;1.36;100.00;99496.28;3627465;80;25785;-76
2020/12/12 09:32:29;;;;;;;11.13;9.23;;;;;;;1.48;100.00;99492.59;3668706;80;25742;-75
2020/12/12 09:37:30;;;;;;;14.17;10.60;;;;;;;1.50;100.00;99492.55;3654869;80;25763;-75
2020/12/12 09:42:31;;;;;;;11.00;9.05;;;;;;;1.39;100.00;99491.00;3687050;80;25823;-75
2020/12/12 09:47:32;;;;;;;12.63;8.93;;;;;;;1.41;100.00;99483.93;3687093;80;25881;-75
2020/12/12 09:52:33;;;;;;;12.23;10.40;;;;;;;1.43;100.00;99481.30;3687167;80;25766;-74
2020/12/12 09:57:34;;;;;;;14.55;10.20;;;;;;;1.68;100.00;99477.80;3641015;80;26006;-75
2020/12/12 10:02:35;;;;;;;14.97;9.83;;;;;;;1.55;100.00;99468.41;3535053;83;33033;-75
2020/12/12 10:07:36;;;;;;;12.17;9.20;;;;;;;1.61;100.00;99477.48;3616272;81;35448;-77
2020/12/12 10:12:37;;;;;;;12.70;9.93;;;;;;;1.54;100.00;99480.66;3513183;83;35883;-74
2020/12/12 10:17:39;;;;;;;13.07;10.37;;;;;;;1.61;100.00;99463.47;3528355;82;35400;-75
2020/12/12 10:22:40;;;;;;;15.90;12.47;;;;;;;1.57;100.00;99467.91;3543124;82;35325;-77
2020/12/12 10:27:44;;;;;;;12.43;10.40;;;;;;;1.53;100.00;99457.05;3511101;83;35459;-70
2020/12/12 10:32:44;;;;;;;13.00;10.77;;;;;;;1.59;100.00;99468.76;3486922;83;26324;-69
2020/12/12 10:37:46;;;;;;;12.80;11.47;;;;;;;1.69;100.00;99454.54;3513559;83;25878;-69
2020/12/12 10:42:47;;;;;;;15.20;12.18;;;;;;;1.85;100.00;99450.31;3573534;83;25811;-70
2020/12/12 10:47:48;;;;;;;12.33;10.43;;;;;;;1.70;100.00;99456.73;3547478;82;25826;-70
2020/12/12 10:52:51;;;;;;;13.80;10.53;;;;;;;1.67;100.00;99465.55;3510085;83;25900;-74
2020/12/12 10:57:52;;;;;;;12.73;10.53;;;;;;;1.77;100.00;99464.04;3540148;83;25837;-74
2020/12/12 11:02:53;;;;;;;13.45;11.90;;;;;;;1.79;100.00;99473.66;3527304;84;26227;-74
2020/12/12 11:07:54;;;;;;;13.47;11.30;;;;;;;1.75;100.00;99474.16;3528431;84;25777;-76
2020/12/12 11:12:55;;;;;;;12.37;10.13;;;;;;;1.62;100.00;99473.97;3528494;84;25849;-76
2020/12/12 11:17:56;;;;;;;15.03;10.93;;;;;;;1.58;100.00;99484.98;3528765;84;25738;-77
2020/12/12 11:22:58;;;;;;;15.27;12.40;;;;;;;1.68;100.00;99468.59;3528833;84;25711;-75
2020/12/12 11:27:58;;;;;;;14.00;11.30;;;;;;;1.71;100.00;99464.58;3529979;84;25864;-75
2020/12/12 11:33:00;;;;;;;13.73;11.53;;;;;;;1.59;100.00;99471.39;3530973;84;25805;-76
2020/12/12 11:43:35;;;;;;;16.10;13.40;;;;;;;1.63;100.00;99471.73;3529463;84;34921;-76
2020/12/12 11:48:19;;;;;;;16.10;13.50;;;;;;;1.81;100.00;99464.42;3525661;84;31472;-77
2020/12/12 11:53:21;;;;;;;16.30;12.80;;;;;;;1.77;100.00;99454.84;3528618;84;26455;-77
2020/12/12 11:58:22;;;;;;;15.47;12.60;;;;;;;1.78;100.00;99465.78;3525707;83;26066;-76
2020/12/12 12:03:23;;;;;;;19.03;12.43;;;;;;;1.70;100.00;99463.31;3524744;84;25848;-77
2020/12/12 12:08:36;;;;;;;13.97;11.80;;;;;;;1.83;100.00;99462.64;3524669;84;26266;-75
2020/12/12 12:13:34;;;;;;;14.67;12.87;;;;;;;1.81;100.00;99472.30;3523360;84;31545;-77
2020/12/12 12:18:35;;;;;;;15.70;12.93;;;;;;;1.81;100.00;99474.94;3524090;84;30987;-76
2020/12/12 12:23:36;;;;;;;16.67;13.77;;;;;;;1.75;100.00;99467.59;3524039;84;25811;-76
2020/12/12 12:28:37;;;;;;;12.60;11.23;;;;;;;1.77;100.00;99480.70;3524090;84;25753;-77
2020/12/12 12:33:38;;;;;;;15.03;12.70;;;;;;;1.78;100.00;99486.80;3524196;84;25811;-77
2020/12/12 12:38:39;;;;;;;15.73;13.87;;;;;;;1.85;100.00;99480.11;3524037;84;25760;-76
2020/12/12 12:43:40;;;;;;;15.57;12.90;;;;;;;1.81;100.00;99477.56;3524591;84;26334;-76
2020/12/12 12:48:41;;;;;;;14.73;11.87;;;;;;;1.86;100.00;99470.45;3523982;84;25803;-76
2020/12/12 12:53:42;;;;;;;14.58;12.70;;;;;;;1.92;100.00;99474.27;3523905;84;25824;-76
2020/12/12 12:58:43;;;;;;;16.07;13.97;;;;;;;1.84;100.00;99491.52;3523893;84;25737;-77
2020/12/12 13:03:44;;;;;;;29.03;21.87;;;;;;;1.91;100.00;99483.92;3524029;84;35547;-76
2020/12/12 13:08:46;;;;;;;14.93;12.60;;;;;;;1.80;100.00;99483.70;3524272;84;35421;-76
2020/12/12 13:13:47;;;;;;;14.07;12.10;;;;;;;1.81;100.00;99484.13;3524425;84;35467;-77
2020/12/12 13:18:57;;;;;;;14.63;13.07;;;;;;;1.88;100.00;99489.23;3524824;84;35431;-77
2020/12/12 13:23:53;;;;;;;18.32;14.40;;;;;;;1.90;100.00;99491.85;3524620;84;25868;-76
2020/12/12 13:34:00;;;;;;;14.65;12.15;;;;;;;1.88;100.00;99502.38;3527718;84;25890;-75
2020/12/12 13:39:01;;;;;;;15.77;14.07;;;;;;;1.83;100.00;99506.00;3525709;84;31009;-76
2020/12/12 13:44:02;;;;;;;15.20;13.03;;;;;;;1.89;100.00;99505.88;3524466;84;25788;-76
2020/12/12 13:49:03;;;;;;;15.95;13.10;;;;;;;1.87;100.00;99509.83;3523904;84;25792;-75
2020/12/12 13:54:04;;;;;;;16.12;14.18;;;;;;;1.87;100.00;99514.23;3523872;84;26201;-75
2020/12/12 13:59:11;;;;;;;15.23;12.57;;;;;;;1.83;100.00;99515.20;3525268;82;27242;-76
2020/12/12 14:04:08;;;;;;;15.43;13.77;;;;;;;1.84;100.00;99531.36;3526016;84;30958;-77
2020/12/12 14:25:08;;;;;;;18.40;14.17;;;;;;;1.72;100.00;99530.70;3527051;84;30980;-77
2020/12/12 14:30:09;;;;;;;18.57;15.07;;;;;;;1.79;100.00;99544.61;3526823;84;31154;-78
2020/12/12 14:35:10;;;;;;;18.23;15.13;;;;;;;1.77;100.00;99542.45;3526948;84;26283;-77
2020/12/12 14:40:12;;;;;;;21.62;15.98;;;;;;;1.84;100.00;99545.81;3526950;84;25790;-77
2020/12/12 14:45:17;;;;;;;17.13;13.57;;;;;;;1.77;100.00;99546.81;3526752;84;25891;-77
2020/12/12 14:50:18;;;;;;;;;;;;;;;1.73;100.00;99550.83;3529392;84;25807;-76
2020/12/12 14:55:20;;;;;;;19.23;15.83;;;;;;;1.83;100.00;99557.25;3527132;84;25721;-76
2020/12/12 15:00:22;;;;;;;20.33;16.37;;;;;;;1.71;100.00;99552.61;3526918;84;26241;-77
2020/12/12 15:05:23;;;;;;;18.87;15.83;;;;;;;1.71;100.00;99555.23;3526774;84;31007;-78
2020/12/12 15:10:26;;;;;;;19.07;15.80;;;;;;;1.73;100.00;99557.83;3527190;82;25853;-76
2020/12/12 15:15:28;;;;;;;20.30;16.97;;;;;;;1.72;100.00;99567.48;3527081;84;30973;-76
2020/12/12 15:20:34;;;;;;;22.93;17.33;;;;;;;1.70;100.00;99578.46;3501052;84;30952;-76
2020/12/12 15:25:35;;;;;;;21.97;17.83;;;;;;;1.88;100.00;99569.86;3525394;84;31631;-76
2020/12/12 15:30:38;;;;;;;20.27;16.63;;;;;;;1.67;100.00;99570.64;3527083;82;25749;-76
2020/12/12 15:35:40;;;;;;;24.00;18.13;;;;;;;1.72;100.00;99575.37;3527085;84;31457;-77
2020/12/12 15:40:41;;;;;;;23.80;18.20;;;;;;;1.71;100.00;99578.03;3527202;82;25904;-77
2020/12/12 15:45:41;;;;;;;21.87;17.50;;;;;;;1.74;100.00;99578.84;3526992;84;25812;-77
2020/12/12 15:50:43;;;;;;;25.13;19.43;;;;;;;1.72;100.00;99583.71;3527181;84;26266;-76
2020/12/12 15:55:45;;;;;;;22.57;18.37;;;;;;;1.74;100.00;99581.48;3527087;84;25840;-77
2020/12/12 16:00:46;;;;;;;22.10;17.80;;;;;;;1.83;100.00;99584.84;3526936;82;25759;-77
2020/12/12 16:05:47;;;;;;;23.67;19.07;;;;;;;1.77;100.00;99595.44;3527116;84;25805;-77
2020/12/12 16:10:48;;;;;;;24.03;17.83;;;;;;;1.81;100.00;99590.56;3527066;84;25757;-77
2020/12/12 16:15:49;;;;;;;27.73;19.50;;;;;;;1.69;100.00;99600.37;3527055;84;26043;-77
2020/12/12 16:20:50;;;;;;;23.80;19.00;;;;;;;1.75;100.00;99610.80;3527057;84;25800;-76
2020/12/12 16:25:51;;;;;;;23.53;18.33;;;;;;;1.73;100.00;99592.88;3527081;84;25784;-77
2020/12/12 16:30:52;;;;;;;23.63;18.50;;;;;;;1.65;100.00;99603.95;3527043;84;25983;-78
2020/12/12 16:35:54;;;;;;;24.83;19.77;;;;;;;1.81;100.00;99607.65;3527028;84;26458;-76
2020/12/12 16:40:55;;;;;;;24.37;19.97;;;;;;;1.72;100.00;99601.64;3527253;84;25845;-76
2020/12/12 16:45:56;;;;;;;26.27;19.63;;;;;;;1.65;100.00;99613.15;3500661;84;25791;-77
2020/12/12 16:50:58;;;;;;;24.93;18.30;;;;;;;1.49;100.00;99610.33;3527080;84;27240;-76
2020/12/12 16:55:59;;;;;;;24.57;19.20;;;;;;;1.45;100.00;99611.28;3527124;84;35542;-77
2020/12/12 17:01:00;;;;;;;24.07;19.57;;;;;;;1.49;100.00;99628.29;3527017;84;35475;-76
2020/12/12 17:06:01;;;;;;;28.20;19.80;;;;;;;1.59;100.00;99618.05;3527034;84;35265;-69
2020/12/12 17:11:02;;;;;;;29.50;22.37;;;;;;;1.57;100.00;99620.27;3526883;84;35986;-71
2020/12/12 17:16:03;;;;;;;28.80;20.92;;;;;;;1.52;100.00;99622.11;3527422;84;35422;-69
2020/12/12 17:21:04;;;;;;;27.90;20.30;;;;;;;1.49;100.00;99621.72;3526983;84;34940;-77
2020/12/12 17:26:05;;;;;;;29.47;20.73;;;;;;;1.42;100.00;99628.81;3526847;84;30237;-77
2020/12/12 17:31:06;;;;;;;24.73;18.93;;;;;;;1.46;100.00;99630.95;3526937;84;28265;-77
2020/12/12 17:36:07;;;;;;;35.83;23.23;;;;;;;1.38;100.00;99636.33;3526863;84;25785;-77
2020/12/12 17:41:09;;;;;;;29.90;22.07;;;;;;;1.47;100.00;99627.44;3526918;84;25856;-77
2020/12/12 17:46:09;;;;;;;27.07;21.37;;;;;;;1.43;100.00;99629.23;3527020;83;25858;-76
2020/12/12 17:51:11;;;;;;;30.80;21.10;;;;;;;1.46;100.00;99628.31;3527272;84;25789;-77
2020/12/12 17:56:12;;;;;;;26.25;20.57;;;;;;;1.41;100.00;99641.97;3527298;84;25856;-77
2020/12/12 18:01:13;;;;;;;36.70;27.13;;;;;;;1.37;100.00;99642.47;3527484;82;25999;-78
2020/12/12 18:06:14;;;;;;;32.33;22.83;;;;;;;1.46;100.00;99656.36;3528013;84;25790;-78
2020/12/12 18:11:16;;;;;;;32.50;23.62;;;;;;;1.44;100.00;99655.08;3528065;82;25851;-77
2020/12/12 18:16:17;;;;;;;35.30;26.00;;;;;;;1.49;100.00;99658.92;3527990;84;25833;-78
2020/12/12 18:21:22;;;;;;;37.17;25.73;;;;;;;1.53;100.00;99661.95;3528024;84;25757;-71
2020/12/12 18:26:23;;;;;;;32.55;24.40;;;;;;;1.37;100.00;99664.78;3527946;84;25910;-71
2020/12/12 18:31:25;;;;;;;36.20;26.17;;;;;;;1.39;100.00;99664.75;3527937;84;28229;-76
2020/12/12 18:36:26;;;;;;;40.73;27.23;;;;;;;1.41;100.00;99661.67;3528093;84;29676;-78
2020/12/12 18:41:27;;;;;;;38.17;26.53;;;;;;;1.43;100.00;99664.70;3528078;84;27867;-77
2020/12/12 18:46:28;;;;;;;40.83;28.57;;;;;;;1.38;100.00;99669.16;3528268;84;25801;-76
2020/12/12 18:51:29;;;;;;;40.77;27.63;;;;;;;1.36;100.00;99670.92;3528155;84;25831;-77
2020/12/12 18:56:30;;;;;;;36.73;25.07;;;;;;;1.33;100.00;99674.92;3528116;84;25844;-77
2020/12/12 19:01:40;;;;;;;43.90;28.63;;;;;;;1.40;100.00;99676.58;3525594;82;25856;-78
2020/12/12 19:06:41;;;;;;;35.87;26.57;;;;;;;1.49;100.00;99683.45;3523986;84;34859;-77
2020/12/12 19:11:42;;;;;;;40.43;27.33;;;;;;;1.46;100.00;99689.19;3524007;84;30173;-77
2020/12/12 19:16:43;;;;;;;39.20;25.30;;;;;;;1.45;100.00;99682.20;3524078;84;29173;-77
2020/12/12 19:21:46;;;;;;;32.50;23.93;;;;;;;1.35;100.00;99688.87;3524000;84;26157;-77
2020/12/12 19:26:48;;;;;;;33.60;24.37;;;;;;;1.38;100.00;99684.03;3524059;84;35396;-75
2020/12/12 19:31:49;;;;;;;40.63;26.90;;;;;;;1.39;100.00;99702.41;3524004;84;35292;-76
2020/12/12 19:36:50;;;;;;;38.10;26.27;;;;;;;1.43;100.00;99702.78;3523955;84;30127;-78
2020/12/12 19:41:53;;;;;;;33.73;24.20;;;;;;;1.36;100.00;99707.69;3524005;84;31132;-77
2020/12/12 19:46:54;;;;;;;36.37;25.23;;;;;;;1.31;100.00;99702.95;3524153;84;34870;-78
2020/12/12 19:51:55;;;;;;;33.90;25.33;;;;;;;1.47;100.00;99704.92;3524189;84;29341;-76
2020/12/12 19:56:57;;;;;;;32.40;23.07;;;;;;;1.47;100.00;99708.00;3524028;84;30137;-75
2020/12/12 20:02:05;;;;;;;28.03;20.60;;;;;;;1.37;100.00;99712.52;3524042;84;29167;-76
2020/12/12 20:07:10;;;;;;;31.97;22.27;;;;;;;1.52;100.00;99710.11;3522526;84;34874;-76
2020/12/12 20:12:12;;;;;;;34.33;24.13;;;;;;;1.47;100.00;99718.52;3524019;84;26136;-70
2020/12/12 20:17:13;;;;;;;34.83;22.53;;;;;;;1.50;100.00;99717.14;3507507;84;35352;-71
2020/12/12 20:22:20;;;;;;;32.10;23.27;;;;;;;1.42;100.00;99717.25;3465106;84;34910;-71
2020/12/12 20:27:24;;;;;;;29.27;22.47;;;;;;;1.36;100.00;99711.63;3465126;84;34992;-72
2020/12/12 20:32:25;;;;;;;32.07;24.00;;;;;;;1.43;100.00;99709.34;3464919;84;35384;-71
2020/12/12 20:37:26;;;;;;;32.87;25.67;;;;;;;1.55;100.00;99721.91;3464974;84;29620;-76
2020/12/12 20:42:27;;;;;;;44.23;29.70;;;;;;;1.50;100.00;99717.14;3479722;84;25887;-76
2020/12/12 20:47:28;;;;;;;36.43;24.73;;;;;;;1.43;100.00;99730.36;3526804;84;25799;-75
2020/12/12 20:52:29;;;;;;;30.87;22.97;;;;;;;1.41;100.00;99722.94;3524616;84;25874;-76
2020/12/12 20:57:43;;;;;;;35.13;24.27;;;;;;;1.47;100.00;99730.33;3491542;84;25864;-76
2020/12/12 21:02:44;;;;;;;34.97;25.07;;;;;;;1.47;100.00;99736.44;3526392;82;35384;-78
2020/12/12 21:07:45;;;;;;;32.93;22.47;;;;;;;1.39;100.00;99741.80;3535351;82;31206;-77
2020/12/12 21:12:49;;;;;;;35.23;24.23;;;;;;;1.32;100.00;99751.97;3544690;82;29669;-77
2020/12/12 21:17:50;;;;;;;34.47;23.40;;;;;;;1.40;100.00;99759.31;3526513;82;35438;-78
2020/12/12 21:22:52;;;;;;;37.60;26.43;;;;;;;1.37;100.00;99761.96;3533911;82;30094;-77
2020/12/12 21:27:56;;;;;;;42.23;27.20;;;;;;;1.40;100.00;99755.37;3540529;82;34851;-77
2020/12/12 21:32:57;;;;;;;41.30;27.83;;;;;;;1.41;100.00;99754.91;3533142;82;35394;-77
2020/12/12 21:37:58;;;;;;;40.33;27.87;;;;;;;1.33;100.00;99758.07;3557628;82;28715;-76
2020/12/12 21:42:59;;;;;;;39.93;25.60;;;;;;;1.28;100.00;99756.81;3568772;82;29696;-77
2020/12/12 21:48:00;;;;;;;39.83;26.93;;;;;;;1.35;100.00;99768.98;3557803;82;25904;-78
2020/12/12 21:53:03;;;;;;;39.97;28.03;;;;;;;1.37;100.00;99764.59;3495350;84;25787;-78
2020/12/12 21:58:06;;;;;;;42.27;28.77;;;;;;;1.41;100.00;99770.21;3495209;84;35477;-78
2020/12/12 22:03:12;;;;;;;39.97;26.70;;;;;;;1.34;100.00;99771.17;3498580;84;34851;-77
2020/12/12 22:08:13;;;;;;;;;;;;;;;1.34;100.00;99776.42;3500793;84;25882;-78
2020/12/12 22:13:15;;;;;;;40.03;26.87;;;;;;;1.31;100.00;99776.91;3500165;84;35049;-78
2020/12/12 22:18:16;;;;;;;41.10;28.63;;;;;;;1.38;100.00;99778.15;3497309;84;34849;-78
2020/12/12 22:23:17;;;;;;;43.70;29.90;;;;;;;1.41;100.00;99785.97;3499814;83;29182;-75
2020/12/12 22:28:18;;;;;;;46.07;30.13;;;;;;;1.41;100.00;99787.28;3497114;84;25889;-75
2020/12/12 22:33:19;;;;;;;50.90;29.77;;;;;;;1.29;100.00;99786.13;3500220;84;25924;-79
2020/12/12 22:38:20;;;;;;;43.73;28.27;;;;;;;1.30;100.00;99787.87;3496824;84;25843;-78
2020/12/12 22:43:21;;;;;;;40.30;28.40;;;;;;;1.34;100.00;99790.02;3495989;84;25824;-79
2020/12/12 22:48:22;;;;;;;41.33;28.40;;;;;;;1.30;100.00;99787.87;3496631;84;25892;-79
2020/12/12 22:53:23;;;;;;;44.23;29.75;;;;;;;1.26;100.00;99778.30;3500176;84;25913;-79
2020/12/12 22:58:24;;;;;;;42.03;28.27;;;;;;;1.24;100.00;99779.61;3497256;84;25893;-80
2020/12/12 23:03:26;;;;;;;41.93;27.13;;;;;;;1.27;100.00;99778.28;3496616;84;26313;-78
2020/12/12 23:08:27;;;;;;;40.17;27.67;;;;;;;1.38;100.00;99784.72;3500768;84;26303;-79
2020/12/12 23:13:28;;;;;;;44.87;28.00;;;;;;;1.40;100.00;99779.00;3499517;84;26184;-78
2020/12/12 23:18:30;;;;;;;43.58;26.68;;;;;;;1.43;100.00;99783.34;3498548;84;25863;-77
2020/12/12 23:23:31;;;;;;;43.20;27.20;;;;;;;1.35;100.00;99786.05;3499268;84;32674;-78
2020/12/12 23:28:32;;;;;;;34.70;23.53;;;;;;;1.35;100.00;99799.18;3525564;84;32560;-78
2020/12/12 23:33:33;;;;;;;38.00;24.57;;;;;;;1.33;100.00;99797.46;3528592;84;26339;-78
2020/12/12 23:38:35;;;;;;;41.25;25.37;;;;;;;1.33;100.00;99805.34;3528165;84;25839;-73